Time;durP1;ratioP1;P1;durP2;ratioP2;P2;SDS_P1;SDS_P2;PMS_P1;PMS_P2;Temp;Humidity;BMP_temperature;BMP_pressure;BME280_temperature;BME280_humidity;BME280_pressure;Samples;Min_cycle;Max_cycle;Signal;HPM_P1;HPM_P2
2023/01/20 00:02:21;;;;;;;25.30;10.52;;;;;;;-144.47;94.66;53052.72;4988672;28;20076;-66
2023/01/20 00:04:47;;;;;;;19.13;9.23;;;;;;;-144.47;94.67;53092.44;4988578;28;20025;-68
2023/01/20 00:07:13;;;;;;;14.18;7.90;;;;;;;-144.47;94.45;53044.78;4989250;28;20112;-65
2023/01/20 00:09:38;;;;;;;24.92;9.43;;;;;;;-144.47;94.21;53078.53;4986150;28;20054;-66
2023/01/20 00:12:04;;;;;;;15.02;8.15;;;;;;;-144.47;94.33;53042.78;4988360;28;20033;-66
2023/01/20 00:14:29;;;;;;;13.60;7.18;;;;;;;-144.47;94.27;53074.56;4983390;28;20069;-66
2023/01/20 00:16:56;;;;;;;16.80;8.55;;;;;;;-144.47;94.18;53054.72;4987320;28;20037;-67
2023/01/20 00:19:21;;;;;;;20.00;8.43;;;;;;;-144.47;94.20;53086.50;4988242;28;20354;-65
2023/01/20 00:21:47;;;;;;;18.95;8.13;;;;;;;-144.47;93.90;53082.53;4996435;28;20102;-65
2023/01/20 00:24:13;;;;;;;15.27;8.13;;;;;;;-144.47;94.10;53082.53;4997398;28;20036;-66
2023/01/20 00:26:38;;;;;;;16.55;8.43;;;;;;;-144.47;93.78;53058.69;5001693;28;20447;-66
2023/01/20 00:29:04;;;;;;;13.63;7.30;;;;;;;-144.47;93.72;53038.81;4988976;28;20068;-65
2023/01/20 00:31:30;;;;;;;16.63;8.13;;;;;;;-144.47;93.70;53082.53;4987004;28;20102;-67
2023/01/20 00:33:58;;;;;;;23.13;9.30;;;;;;;-144.47;93.72;53078.53;4986238;28;20033;-66
2023/01/20 00:36:25;;;;;;;17.77;8.63;;;;;;;-144.47;93.61;53066.63;4988383;28;20018;-66
2023/01/20 00:38:51;;;;;;;19.27;8.35;;;;;;;-144.47;93.47;53052.72;4988012;28;20040;-66
2023/01/20 00:41:17;;;;;;;16.45;8.70;;;;;;;-144.47;93.63;53066.63;4987623;28;20022;-66
2023/01/20 00:43:43;;;;;;;21.23;9.43;;;;;;;-144.47;93.63;53084.50;4988170;28;20026;-65
2023/01/20 00:46:08;;;;;;;16.10;8.20;;;;;;;-144.47;93.36;53072.59;4987817;28;20435;-66
2023/01/20 00:48:35;;;;;;;14.70;7.72;;;;;;;-144.47;93.06;53070.59;4991623;28;20497;-70
2023/01/20 00:51:01;;;;;;;16.20;8.05;;;;;;;-144.47;92.83;53078.53;4992213;28;20540;-66
2023/01/20 00:53:27;;;;;;;16.70;8.75;;;;;;;-144.47;92.74;53052.72;4991670;28;20038;-67
2023/01/20 00:55:52;;;;;;;27.05;9.23;;;;;;;-144.47;92.58;53062.66;4992121;28;20033;-67
2023/01/20 00:58:17;;;;;;;16.52;8.45;;;;;;;-144.47;92.27;53064.66;4991866;28;20034;-66
2023/01/20 01:00:46;;;;;;;20.38;8.60;;;;;;;-144.47;92.04;53054.72;4996033;28;20049;-66
2023/01/20 01:03:11;;;;;;;26.35;8.25;;;;;;;-144.47;91.87;53076.56;4990078;28;20053;-70
2023/01/20 01:05:37;;;;;;;18.75;8.00;;;;;;;-144.47;91.67;53060.66;4991410;28;20085;-69
2023/01/20 01:08:03;;;;;;;20.35;8.27;;;;;;;-144.47;91.73;53050.75;4993333;28;20127;-64
2023/01/20 01:10:28;;;;;;;16.38;7.97;;;;;;;-144.47;91.39;53088.47;4992056;28;20034;-66
2023/01/20 01:12:54;;;;;;;16.52;8.23;;;;;;;-144.47;91.13;53090.47;4991262;28;20110;-66
2023/01/20 01:15:19;;;;;;;29.55;7.80;;;;;;;-144.47;90.60;53072.59;5010613;28;20018;-65
2023/01/20 01:17:44;;;;;;;15.40;7.68;;;;;;;-144.47;90.83;53064.66;5001088;28;20025;-66
2023/01/20 01:20:12;;;;;;;21.02;8.27;;;;;;;-144.47;90.42;53080.53;4992121;28;20412;-64
2023/01/20 01:22:37;;;;;;;19.05;8.35;;;;;;;-144.47;90.56;53060.66;4995016;28;20429;-64
2023/01/20 01:25:03;;;;;;;15.13;7.60;;;;;;;-144.47;90.93;53054.72;4995846;28;20042;-65
2023/01/20 01:27:28;;;;;;;15.40;7.53;;;;;;;-144.47;90.82;53056.69;4989618;28;20416;-66
2023/01/20 01:29:54;;;;;;;17.15;8.48;;;;;;;-144.47;91.10;53076.56;4989591;28;20629;-64
2023/01/20 01:32:20;;;;;;;19.55;8.52;;;;;;;-144.47;91.37;53068.63;4991240;28;20034;-67
2023/01/20 01:34:46;;;;;;;18.90;7.55;;;;;;;-144.47;91.15;53042.78;4990420;28;20042;-66
2023/01/20 01:37:11;;;;;;;27.15;8.38;;;;;;;-144.47;90.97;53068.63;4989983;28;20018;-65
2023/01/20 01:39:36;;;;;;;23.13;8.48;;;;;;;-144.47;91.05;53082.53;4990397;28;20204;-67
2023/01/20 01:42:02;;;;;;;22.52;8.90;;;;;;;-144.47;91.15;53086.50;4990798;28;20119;-67
2023/01/20 01:44:27;;;;;;;22.00;8.07;;;;;;;-144.47;90.92;53046.75;4988305;28;20014;-66
2023/01/20 01:46:52;;;;;;;19.63;8.60;;;;;;;-144.47;90.95;53074.56;4988128;28;20042;-66
2023/01/20 01:49:31;;;;;;;15.60;7.22;;;;;;;-144.47;90.60;53068.63;4990572;28;20026;-66
2023/01/20 01:51:58;;;;;;;19.35;8.60;;;;;;;-144.47;90.92;53054.72;4990647;28;20551;-66
2023/01/20 01:54:28;;;;;;;24.45;8.45;;;;;;;-144.47;90.45;53038.81;4990971;28;20118;-68
2023/01/20 01:56:54;;;;;;;17.55;8.68;;;;;;;-144.47;90.45;53058.69;4985897;28;20445;-66
2023/01/20 01:59:20;;;;;;;19.67;7.50;;;;;;;-144.47;90.72;53074.56;5006043;28;20037;-67
2023/01/20 02:01:50;;;;;;;20.13;9.20;;;;;;;-144.47;90.77;53072.59;4996700;28;20559;-68
2023/01/20 02:04:22;;;;;;;19.77;7.95;;;;;;;-144.47;90.70;53068.63;4988374;28;20061;-66
2023/01/20 02:06:55;;;;;;;21.67;8.27;;;;;;;-144.47;90.50;53092.44;4989574;28;20138;-68
2023/01/20 02:09:22;;;;;;;18.73;8.40;;;;;;;-144.47;90.87;53064.66;4988614;28;20038;-68
2023/01/20 02:11:51;;;;;;;17.33;8.40;;;;;;;-144.47;90.79;53038.81;4989363;28;20355;-66
2023/01/20 02:14:20;;;;;;;15.25;7.95;;;;;;;-144.47;91.04;53094.44;4991887;28;20108;-66
2023/01/20 02:17:24;;;;;;;18.27;7.88;;;;;;;-144.47;90.88;53038.81;4996800;28;20403;-65
2023/01/20 02:20:20;;;;;;;18.05;8.65;;;;;;;-144.47;91.23;53074.56;4943021;29;20039;-66
2023/01/20 02:22:48;;;;;;;15.85;8.27;;;;;;;-144.47;91.37;53086.50;4998364;28;20449;-65
2023/01/20 02:25:26;;;;;;;14.88;8.30;;;;;;;-144.47;91.32;53072.59;4993582;28;20465;-66
2023/01/20 02:28:10;;;;;;;17.10;7.97;;;;;;;-144.47;91.26;53090.47;4988969;28;20030;-67
2023/01/20 02:30:53;;;;;;;26.55;8.23;;;;;;;-144.47;90.92;53084.50;4988690;28;20042;-67
2023/01/20 02:33:28;;;;;;;20.70;9.10;;;;;;;-144.47;91.58;53074.56;4987444;28;20062;-66
2023/01/20 02:36:08;;;;;;;16.00;8.20;;;;;;;-144.47;91.53;53070.59;4996502;28;20045;-66
2023/01/20 02:38:47;;;;;;;18.92;9.02;;;;;;;-144.47;91.43;53068.63;5001037;28;20105;-64
2023/01/20 02:41:19;;;;;;;16.67;8.02;;;;;;;-144.47;91.10;53078.53;4989444;28;20018;-64
2023/01/20 02:43:55;;;;;;;24.20;9.13;;;;;;;-144.47;91.34;53062.66;4989599;28;20026;-65
2023/01/20 02:46:32;;;;;;;17.25;8.18;;;;;;;-144.47;91.07;53078.53;4988602;28;20030;-66
2023/01/20 02:49:19;;;;;;;16.95;7.55;;;;;;;-144.47;91.20;53068.63;4989554;28;20029;-64
2023/01/20 02:52:09;;;;;;;12.68;7.43;;;;;;;-144.47;91.10;53108.34;4988050;28;20050;-65
2023/01/20 02:54:39;;;;;;;14.90;8.20;;;;;;;-144.47;91.04;53066.63;4988366;28;20058;-66
2023/01/20 02:57:08;;;;;;;19.35;8.40;;;;;;;-144.47;91.14;53062.66;4988413;28;20023;-66
2023/01/20 02:59:39;;;;;;;17.87;7.57;;;;;;;-144.47;91.15;53068.63;4988082;28;20030;-67
2023/01/20 03:02:27;;;;;;;18.83;8.73;;;;;;;-144.47;91.19;53092.44;4988942;28;20781;-66
2023/01/20 03:05:03;;;;;;;16.27;7.18;;;;;;;-144.47;91.38;53086.50;4988919;28;20030;-68
2023/01/20 03:07:32;;;;;;;18.33;7.80;;;;;;;-144.47;91.44;53110.31;4988186;28;20034;-66
2023/01/20 03:10:01;;;;;;;26.00;9.07;;;;;;;-144.47;91.32;53084.50;4987755;28;20413;-66
2023/01/20 03:12:29;;;;;;;;;;;;;;;-144.47;91.54;53066.63;4987427;28;20038;-66
2023/01/20 03:14:55;;;;;;;17.88;7.63;;;;;;;-144.47;91.37;53098.41;4988061;28;19996;-66
2023/01/20 03:17:22;;;;;;;16.40;8.02;;;;;;;-144.47;91.63;53080.53;4988357;28;20105;-66
2023/01/20 03:19:48;;;;;;;21.15;7.72;;;;;;;-144.47;91.52;53074.56;5001908;28;20025;-65
2023/01/20 03:22:13;;;;;;;17.88;8.25;;;;;;;-144.47;91.74;53092.44;4988149;28;20104;-65
2023/01/20 03:24:41;;;;;;;16.40;8.23;;;;;;;-144.47;91.52;53098.41;4993895;28;20041;-66
2023/01/20 03:27:07;;;;;;;18.77;9.23;;;;;;;-144.47;91.75;53100.41;4988355;28;20038;-65
2023/01/20 03:29:33;;;;;;;20.42;8.77;;;;;;;-144.47;91.65;53092.44;4988877;28;20072;-66
2023/01/20 03:32:00;;;;;;;18.13;8.43;;;;;;;-144.47;91.80;53092.44;4988095;28;20345;-66
2023/01/20 03:34:28;;;;;;;21.48;8.10;;;;;;;-144.47;91.63;53070.59;4995721;28;20022;-64
2023/01/20 03:36:54;;;;;;;16.50;8.13;;;;;;;-144.47;91.54;53038.81;5004043;28;20026;-63
2023/01/20 03:39:22;;;;;;;25.50;9.13;;;;;;;-144.47;91.27;53070.59;4997493;28;20038;-65
2023/01/20 03:42:14;;;;;;;19.00;9.00;;;;;;;-144.47;90.29;53074.56;4989584;28;20022;-66
2023/01/20 03:45:07;;;;;;;18.15;8.55;;;;;;;-144.47;90.12;53082.53;4997138;28;20038;-65
2023/01/20 03:48:03;;;;;;;21.15;9.15;;;;;;;-144.47;90.23;53084.50;4987960;28;20033;-66
2023/01/20 03:50:37;;;;;;;14.68;8.25;;;;;;;-144.47;90.18;53066.63;4976730;28;20066;-66
2023/01/20 03:53:31;;;;;;;20.15;8.48;;;;;;;-144.47;90.14;53084.50;4986805;28;20030;-66
2023/01/20 03:56:07;;;;;;;18.92;9.18;;;;;;;-144.47;90.61;53078.53;4995131;28;20163;-67
2023/01/20 03:58:37;;;;;;;21.40;9.05;;;;;;;-144.47;90.52;53074.56;4993183;28;20551;-66
2023/01/20 04:01:07;;;;;;;15.43;8.52;;;;;;;-144.47;90.45;53074.56;4988454;28;20041;-66
2023/01/20 04:03:37;;;;;;;15.02;8.27;;;;;;;-144.47;90.57;53042.78;4988063;28;20044;-65
2023/01/20 04:06:06;;;;;;;22.55;11.00;;;;;;;-144.47;90.60;53072.59;4988298;28;20030;-64
2023/01/20 04:08:38;;;;;;;27.23;11.90;;;;;;;-144.47;90.69;53060.66;4987886;28;20096;-66
2023/01/20 04:11:06;;;;;;;23.88;11.52;;;;;;;-144.47;91.00;53074.56;4987914;28;20041;-65
2023/01/20 04:13:32;;;;;;;15.30;8.65;;;;;;;-144.47;91.31;53060.66;4988735;28;20102;-65
2023/01/20 04:16:00;;;;;;;19.67;8.88;;;;;;;-144.47;91.52;53098.41;4988335;28;20026;-66
2023/01/20 04:18:25;;;;;;;23.13;8.95;;;;;;;-144.47;91.71;53068.63;4985979;28;20026;-65
2023/01/20 04:21:01;;;;;;;17.98;8.90;;;;;;;-144.47;91.62;53086.50;4986702;28;20144;-66
2023/01/20 04:23:41;;;;;;;18.05;8.48;;;;;;;-144.47;91.68;53076.56;4997653;28;20049;-65
2023/01/20 04:26:07;;;;;;;18.60;8.32;;;;;;;-144.47;91.69;53082.53;4995852;28;20030;-63
2023/01/20 04:28:32;;;;;;;20.98;9.40;;;;;;;-144.47;91.62;53092.44;4990610;28;20026;-67
2023/01/20 04:30:57;;;;;;;21.85;8.85;;;;;;;-144.47;91.68;53078.53;4993601;28;20040;-66
2023/01/20 04:33:23;;;;;;;22.92;9.80;;;;;;;-144.47;91.49;53090.47;4997264;28;20026;-66
2023/01/20 04:35:48;;;;;;;25.35;9.70;;;;;;;-144.47;91.86;53034.84;5008055;28;20395;-67
2023/01/20 04:38:14;;;;;;;22.02;8.73;;;;;;;-144.47;91.99;53064.66;4996044;28;20042;-65
2023/01/20 04:40:39;;;;;;;19.52;7.75;;;;;;;-144.47;92.03;53094.44;4993717;28;20104;-64
2023/01/20 04:43:05;;;;;;;18.00;8.75;;;;;;;-144.47;91.83;53080.53;4992315;28;20038;-66
2023/01/20 04:45:30;;;;;;;16.15;8.32;;;;;;;-144.47;92.00;53078.53;4992064;28;20031;-65
2023/01/20 04:47:55;;;;;;;19.60;8.68;;;;;;;-144.47;91.74;53074.56;4990816;28;20540;-66
2023/01/20 04:50:21;;;;;;;24.98;10.68;;;;;;;-144.47;91.67;53060.66;4991516;28;20026;-66
2023/01/20 04:52:47;;;;;;;19.38;10.57;;;;;;;-144.47;91.87;53076.56;4991109;28;20369;-63
2023/01/20 04:55:12;;;;;;;26.38;10.07;;;;;;;-144.47;91.48;53098.41;4991381;28;20158;-65
2023/01/20 04:57:38;;;;;;;20.50;9.55;;;;;;;-144.47;91.72;53090.47;4991350;28;20034;-65
2023/01/20 05:00:05;;;;;;;21.98;11.13;;;;;;;-144.47;91.67;53082.53;4992143;28;20034;-66
2023/01/20 05:02:30;;;;;;;19.95;8.75;;;;;;;-144.47;91.52;53078.53;4991484;28;20053;-64
2023/01/20 05:04:56;;;;;;;25.20;9.02;;;;;;;-144.47;91.44;53108.34;4991388;28;20030;-64
2023/01/20 05:07:21;;;;;;;22.65;8.90;;;;;;;-144.47;91.17;53082.53;4990879;28;20052;-66
2023/01/20 05:09:47;;;;;;;26.00;9.27;;;;;;;-144.47;91.25;53096.41;4991600;28;20058;-65
2023/01/20 05:12:12;;;;;;;19.65;8.10;;;;;;;-144.47;90.75;53086.50;4991102;28;20104;-65
2023/01/20 05:14:37;;;;;;;19.88;7.85;;;;;;;-144.47;89.96;53076.56;4991428;28;20061;-66
2023/01/20 05:17:03;;;;;;;15.13;8.82;;;;;;;-144.47;89.81;53074.56;4989231;28;20019;-66
2023/01/20 05:19:28;;;;;;;19.75;9.02;;;;;;;-144.47;89.41;53072.59;4993817;28;20057;-67
2023/01/20 05:21:53;;;;;;;25.88;8.32;;;;;;;-144.47;89.71;53054.72;4978197;28;20082;-64
2023/01/20 05:24:19;;;;;;;16.08;8.15;;;;;;;-144.47;89.43;53080.53;4986188;28;20034;-67
2023/01/20 05:26:44;;;;;;;18.83;7.82;;;;;;;-144.47;88.96;53078.53;4994821;28;20083;-65
2023/01/20 05:29:09;;;;;;;18.73;7.38;;;;;;;-144.47;88.76;53058.69;5002130;28;20034;-65
2023/01/20 05:31:37;;;;;;;23.15;8.75;;;;;;;-144.47;88.56;53058.69;4993672;28;20030;-64
2023/01/20 05:34:03;;;;;;;21.73;8.23;;;;;;;-144.47;88.07;53082.53;4998309;28;20037;-65
2023/01/20 05:36:29;;;;;;;19.98;7.90;;;;;;;-144.47;88.19;53060.66;4988698;28;20026;-66
2023/01/20 05:38:54;;;;;;;16.23;7.60;;;;;;;-144.47;87.55;53066.63;4988884;28;20095;-66
2023/01/20 05:41:19;;;;;;;18.35;7.85;;;;;;;-144.47;88.00;53082.53;4996632;28;20164;-66
2023/01/20 05:43:45;;;;;;;21.42;7.75;;;;;;;-144.47;87.54;53078.53;4998490;28;20037;-67
2023/01/20 05:46:10;;;;;;;15.77;8.73;;;;;;;-144.47;87.33;53106.34;5012927;22;20049;-69
2023/01/20 05:48:36;;;;;;;17.15;8.27;;;;;;;-144.47;87.74;53082.53;5029263;28;20033;-64
2023/01/20 05:51:01;;;;;;;17.63;7.43;;;;;;;-144.47;87.53;53052.72;5030977;28;20403;-66
2023/01/20 05:53:27;;;;;;;23.15;7.18;;;;;;;-144.47;88.14;53090.47;5031104;28;20399;-68
2023/01/20 05:56:03;;;;;;;21.15;9.30;;;;;;;-144.47;88.04;53098.41;5031413;28;20025;-68
2023/01/20 05:58:30;;;;;;;22.75;8.68;;;;;;;-144.47;87.53;53086.50;5028422;28;20144;-69
2023/01/20 06:01:05;;;;;;;20.13;9.35;;;;;;;-144.47;87.31;53098.41;5019538;28;20021;-65
2023/01/20 06:03:30;;;;;;;25.95;8.48;;;;;;;-144.47;87.99;53078.53;5025559;28;20543;-66
2023/01/20 06:06:05;;;;;;;24.45;9.35;;;;;;;-144.47;88.26;53110.31;5011683;28;20133;-64
2023/01/20 06:08:30;;;;;;;25.42;8.77;;;;;;;-144.47;88.18;53078.53;5021169;28;20033;-67
2023/01/20 06:10:56;;;;;;;15.88;7.65;;;;;;;-144.47;87.72;53056.69;5009154;28;20400;-66
2023/01/20 06:13:21;;;;;;;23.45;8.23;;;;;;;-144.47;87.94;53060.66;5011328;28;20026;-65
2023/01/20 06:15:54;;;;;;;15.30;8.43;;;;;;;-144.47;87.79;53086.50;5011430;28;20030;-63
2023/01/20 06:18:20;;;;;;;21.00;9.93;;;;;;;-144.47;88.40;53078.53;5008923;28;20280;-65
2023/01/20 06:20:46;;;;;;;19.27;8.90;;;;;;;-144.47;88.21;53078.53;5005323;28;20026;-66
2023/01/20 06:23:12;;;;;;;23.70;9.65;;;;;;;-144.47;87.81;53078.53;5010110;28;20467;-66
2023/01/20 06:25:37;;;;;;;14.70;7.53;;;;;;;-144.47;90.67;53054.72;5007996;28;20105;-63
2023/01/20 06:28:03;;;;;;;21.80;8.45;;;;;;;-144.47;88.71;53064.66;5017890;28;20036;-65
2023/01/20 06:30:28;;;;;;;15.88;8.80;;;;;;;-144.47;88.51;53084.50;5007926;28;20037;-66
2023/01/20 06:32:53;;;;;;;20.10;9.63;;;;;;;-144.47;89.00;53094.44;5016569;28;20060;-68
2023/01/20 06:35:20;;;;;;;16.85;8.30;;;;;;;-144.47;88.26;53076.56;5010948;28;20010;-65
2023/01/20 06:37:45;;;;;;;23.67;9.00;;;;;;;-144.47;88.18;53048.75;5026233;28;20112;-67
2023/01/20 06:40:11;;;;;;;26.55;10.20;;;;;;;-144.47;87.71;53100.41;5010723;28;20109;-67
2023/01/20 06:42:36;;;;;;;21.02;9.63;;;;;;;-144.47;87.80;53080.53;5014382;28;20029;-67
2023/01/20 06:45:02;;;;;;;16.17;8.23;;;;;;;-144.47;87.71;53068.63;5007991;28;20045;-65
2023/01/20 06:47:27;;;;;;;19.92;9.18;;;;;;;-144.47;87.60;53074.56;5021931;28;20026;-65
2023/01/20 06:49:52;;;;;;;20.35;9.80;;;;;;;-144.47;87.47;53094.44;5030307;28;20033;-67
2023/01/20 06:52:18;;;;;;;20.75;9.18;;;;;;;-144.47;87.84;53076.56;5029355;28;20032;-66
2023/01/20 06:54:43;;;;;;;22.95;9.73;;;;;;;-144.47;88.06;53076.56;5030294;28;20448;-66
2023/01/20 06:57:08;;;;;;;22.65;10.05;;;;;;;-144.47;87.83;53090.47;5029952;28;20427;-66
2023/01/20 06:59:34;;;;;;;16.80;8.95;;;;;;;-144.47;87.81;53094.44;5030233;28;20491;-67
2023/01/20 07:01:59;;;;;;;24.77;9.70;;;;;;;-144.47;87.70;53084.50;5029534;28;20056;-68
2023/01/20 07:04:24;;;;;;;25.05;10.00;;;;;;;-144.47;87.40;53082.53;5029925;28;20029;-68
2023/01/20 07:06:50;;;;;;;20.10;10.48;;;;;;;-144.47;86.62;53074.56;5015074;28;20080;-66
2023/01/20 07:09:15;;;;;;;24.65;9.30;;;;;;;-144.47;86.82;53062.66;5022365;28;20622;-65
2023/01/20 07:11:40;;;;;;;21.63;8.63;;;;;;;-144.47;86.99;53090.47;5023908;28;20431;-67
2023/01/20 07:14:07;;;;;;;21.25;8.98;;;;;;;-144.47;86.91;53078.53;5017860;28;20052;-64
2023/01/20 07:16:32;;;;;;;33.63;11.02;;;;;;;-144.47;86.67;53084.50;5015766;28;20049;-67
2023/01/20 07:18:58;;;;;;;20.35;9.90;;;;;;;-144.47;86.72;53094.44;5012857;28;20053;-67
2023/01/20 07:21:24;;;;;;;20.95;8.75;;;;;;;-144.47;86.64;53110.31;5003762;28;20021;-67
2023/01/20 07:23:49;;;;;;;23.15;8.82;;;;;;;-144.47;86.88;53098.41;5010125;28;20104;-67
2023/01/20 07:26:21;;;;;;;21.75;8.98;;;;;;;-144.47;86.51;53090.47;5010282;28;20022;-65
2023/01/20 07:28:47;;;;;;;21.40;8.93;;;;;;;-144.47;86.87;53078.53;5012114;28;20087;-67
2023/01/20 07:31:20;;;;;;;19.58;9.27;;;;;;;-144.47;86.28;53078.53;5021493;28;20483;-66
2023/01/20 07:33:46;;;;;;;23.20;10.13;;;;;;;-144.47;86.02;53082.53;5007917;28;20042;-66
2023/01/20 07:36:13;;;;;;;22.73;9.30;;;;;;;-144.47;85.83;53078.53;5027925;28;20029;-65
2023/01/20 07:38:39;;;;;;;18.52;9.02;;;;;;;-144.47;86.35;53082.53;5014837;28;20484;-65
2023/01/20 07:41:10;;;;;;;25.75;9.80;;;;;;;-144.47;86.60;53062.66;5020449;28;20022;-66
2023/01/20 07:43:35;;;;;;;17.05;8.15;;;;;;;-144.47;86.49;53102.38;5022082;28;20108;-67
2023/01/20 07:46:03;;;;;;;24.00;9.00;;;;;;;-144.47;86.57;53094.44;5017725;28;20444;-67
2023/01/20 07:48:30;;;;;;;21.67;9.40;;;;;;;-144.47;86.12;53098.41;5010006;28;20459;-65
2023/01/20 07:51:01;;;;;;;20.20;8.32;;;;;;;-144.47;85.90;53090.47;5010091;28;20025;-67
2023/01/20 07:53:32;;;;;;;15.35;8.45;;;;;;;-144.47;86.13;53102.38;5021393;28;20027;-67
2023/01/20 07:56:02;;;;;;;18.70;9.38;;;;;;;-144.47;86.50;53100.41;5012968;28;20132;-67
2023/01/20 07:58:28;;;;;;;24.45;9.85;;;;;;;-144.47;86.63;53094.44;5012819;28;20052;-66
2023/01/20 08:00:54;;;;;;;18.60;9.55;;;;;;;-144.47;86.22;53078.53;5010987;28;20044;-66
2023/01/20 08:03:19;;;;;;;20.05;8.60;;;;;;;-144.47;85.90;53086.50;5022021;28;20033;-66
2023/01/20 08:05:46;;;;;;;22.85;8.85;;;;;;;-144.47;85.97;53066.63;5021724;28;20391;-66
2023/01/20 08:08:11;;;;;;;25.08;9.40;;;;;;;-144.47;85.63;53098.41;5016424;28;20026;-67
2023/01/20 08:10:36;;;;;;;21.92;9.07;;;;;;;-144.47;85.83;53086.50;5017981;28;20022;-67
2023/01/20 08:13:02;;;;;;;19.58;8.63;;;;;;;-144.47;86.08;53088.47;5022873;28;20026;-66
2023/01/20 08:15:27;;;;;;;19.80;9.23;;;;;;;-144.47;85.42;53080.53;5015708;28;20092;-66
2023/01/20 08:17:54;;;;;;;18.40;9.60;;;;;;;-144.47;86.05;53098.41;5017828;28;20045;-67
2023/01/20 08:20:19;;;;;;;23.33;9.13;;;;;;;-144.47;85.15;53056.69;5008486;28;20033;-64
2023/01/20 08:22:44;;;;;;;17.23;8.65;;;;;;;-144.47;84.76;53088.47;5017362;28;20029;-67
2023/01/20 08:25:10;;;;;;;20.95;10.32;;;;;;;-144.47;84.78;53102.38;5029145;28;20021;-64
2023/01/20 08:27:35;;;;;;;22.27;9.45;;;;;;;-144.47;83.89;53094.44;5023466;28;20050;-66
2023/01/20 08:30:01;;;;;;;32.22;10.48;;;;;;;-144.47;83.62;53078.53;5021307;28;20025;-65
2023/01/20 08:32:26;;;;;;;22.63;9.98;;;;;;;-144.47;83.26;53090.47;5017840;28;20482;-66
2023/01/20 08:34:51;;;;;;;23.73;9.23;;;;;;;-144.47;83.17;53052.72;5029324;28;20014;-66
2023/01/20 08:37:17;;;;;;;25.17;8.55;;;;;;;-144.47;83.08;53066.63;5015751;28;20021;-67
2023/01/20 08:39:42;;;;;;;20.90;9.52;;;;;;;-144.47;82.61;53056.69;5010325;28;20030;-66
2023/01/20 08:42:07;;;;;;;29.80;11.75;;;;;;;-144.47;84.19;53070.59;5009269;28;20033;-66
2023/01/20 08:44:33;;;;;;;28.77;11.95;;;;;;;-144.47;84.53;53064.66;5023560;28;20029;-65
2023/01/20 08:46:58;;;;;;;31.45;12.70;;;;;;;-144.47;84.64;53062.66;5014457;28;20036;-66
2023/01/20 08:49:24;;;;;;;21.60;11.25;;;;;;;-144.47;85.02;53082.53;5016219;28;20029;-64
2023/01/20 08:51:49;;;;;;;22.92;10.82;;;;;;;-144.47;85.58;53084.50;5022879;28;20420;-65
2023/01/20 08:54:15;;;;;;;29.20;11.60;;;;;;;-144.47;85.35;53054.72;5015418;28;20434;-67
2023/01/20 08:56:41;;;;;;;23.08;10.48;;;;;;;-144.47;85.37;53050.75;5012078;28;20026;-66
2023/01/20 08:59:06;;;;;;;22.77;11.00;;;;;;;-144.47;85.63;53088.47;5016653;28;20030;-65
2023/01/20 09:01:35;;;;;;;24.58;9.88;;;;;;;-144.47;84.99;53062.66;5018245;28;20037;-67
2023/01/20 09:04:01;;;;;;;26.35;11.25;;;;;;;-144.47;84.65;53090.47;5017514;28;20030;-67
2023/01/20 09:06:26;;;;;;;23.50;10.88;;;;;;;-144.47;84.41;53090.47;5021130;28;20048;-67
2023/01/20 09:08:53;;;;;;;23.05;11.15;;;;;;;-144.47;84.24;53100.41;5022422;28;20426;-66
2023/01/20 09:11:21;;;;;;;20.90;10.82;;;;;;;-144.47;84.25;53062.66;5015735;28;20077;-69
2023/01/20 09:13:47;;;;;;;24.92;11.35;;;;;;;-144.47;83.91;53062.66;5018893;28;20017;-67
2023/01/20 09:16:15;;;;;;;32.13;10.57;;;;;;;-144.47;83.49;53070.59;5026080;28;20026;-64
2023/01/20 09:18:40;;;;;;;23.40;10.35;;;;;;;-144.47;83.37;53082.53;5014735;28;20494;-62
2023/01/20 09:21:06;;;;;;;21.75;10.48;;;;;;;-144.47;83.03;53062.66;5000477;28;20056;-67
2023/01/20 09:23:37;;;;;;;23.20;11.05;;;;;;;-144.47;82.33;53086.50;5017126;28;20025;-68
2023/01/20 09:26:04;;;;;;;22.63;10.27;;;;;;;-144.47;81.58;53082.53;5021856;28;20034;-66
2023/01/20 09:28:30;;;;;;;19.10;10.07;;;;;;;-144.47;81.25;53052.72;5015185;28;20026;-66
2023/01/20 09:31:04;;;;;;;20.75;9.80;;;;;;;-144.47;81.03;53054.72;5011944;28;20026;-66
2023/01/20 09:33:31;;;;;;;22.05;9.23;;;;;;;-144.47;79.99;53046.75;5021063;28;20468;-64
2023/01/20 09:35:58;;;;;;;21.63;10.73;;;;;;;-144.47;79.79;53022.94;5026365;28;20173;-67
2023/01/20 09:44:18;;;;;;;;;;;;;;;-144.47;78.56;53034.84;5014284;28;20499;-65
2023/01/20 09:47:20;;;;;;;22.98;9.57;;;;;;;-144.47;77.81;53048.75;5026140;28;19913;-66
2023/01/20 09:53:06;;;;;;;33.40;10.85;;;;;;;-144.47;77.01;53028.88;5026580;28;20529;-67
2023/01/20 09:55:52;;;;;;;22.77;9.57;;;;;;;-144.47;76.68;53026.91;5012988;28;20018;-65
2023/01/20 09:58:31;;;;;;;23.02;11.05;;;;;;;-144.47;76.28;53032.88;5024789;28;20022;-67
2023/01/20 10:01:07;;;;;;;23.55;10.43;;;;;;;-144.47;75.68;53028.88;5020822;28;20491;-64
2023/01/20 10:03:39;;;;;;;20.98;10.57;;;;;;;-144.47;75.56;53028.88;5013650;28;20025;-66
2023/01/20 10:06:11;;;;;;;19.10;9.57;;;;;;;-144.47;75.21;53030.88;5016379;28;20115;-66
2023/01/20 10:09:02;;;;;;;22.85;11.00;;;;;;;-144.47;73.92;52999.09;5011433;28;20100;-67
2023/01/20 10:11:33;;;;;;;19.67;10.35;;;;;;;-144.47;73.26;53016.97;5009998;28;20030;-66
2023/01/20 10:14:33;;;;;;;22.75;10.30;;;;;;;-144.47;74.29;53038.81;5024540;28;20107;-68
2023/01/20 10:17:17;;;;;;;20.30;10.27;;;;;;;-144.47;73.53;53046.75;5003770;28;20036;-66
2023/01/20 10:19:47;;;;;;;21.75;10.38;;;;;;;-144.47;73.25;53015.00;5003654;28;20061;-65
2023/01/20 10:22:26;;;;;;;27.20;10.98;;;;;;;-144.47;72.53;52993.13;5005321;28;20030;-65
2023/01/20 10:24:54;;;;;;;;;;;;;;;-144.47;72.88;53058.69;5021449;28;20430;-63
2023/01/20 10:27:25;;;;;;;22.40;9.43;;;;;;;-144.47;72.53;53020.94;5017559;28;19908;-66
2023/01/20 10:29:57;;;;;;;20.73;10.15;;;;;;;-144.47;72.00;53003.06;5019600;28;20049;-67
2023/01/20 10:32:32;;;;;;;19.20;9.85;;;;;;;-144.47;71.62;53009.03;5024027;28;20080;-68
2023/01/20 10:35:02;;;;;;;25.48;10.90;;;;;;;-144.47;71.56;53016.97;5016630;28;20026;-66
2023/01/20 10:37:29;;;;;;;29.05;12.25;;;;;;;-144.47;71.92;53005.06;5028819;28;20036;-66
2023/01/20 10:40:02;;;;;;;23.73;11.07;;;;;;;-144.47;71.46;53040.81;5017547;28;20080;-65
2023/01/20 10:42:28;;;;;;;23.73;11.00;;;;;;;-144.47;70.93;52971.28;5015957;28;20033;-66
2023/01/20 10:44:54;;;;;;;30.58;11.05;;;;;;;-144.47;72.17;53005.06;5015813;28;20060;-67
2023/01/20 10:47:46;;;;;;;21.08;10.07;;;;;;;-144.47;71.59;53005.06;5022847;28;20092;-65
2023/01/20 10:50:46;;;;;;;22.45;10.07;;;;;;;-144.47;71.36;53028.88;5019725;28;20056;-63
2023/01/20 10:53:23;;;;;;;26.23;10.48;;;;;;;-144.47;71.34;53034.84;5012845;28;20041;-67
2023/01/20 10:56:05;;;;;;;23.52;10.60;;;;;;;-144.47;71.35;53018.97;5018872;28;20052;-65
2023/01/20 10:58:34;;;;;;;28.23;10.85;;;;;;;-144.47;70.95;53022.94;5010195;28;20034;-65
2023/01/20 11:01:08;;;;;;;29.42;10.32;;;;;;;-144.47;71.69;53011.00;5020992;28;20035;-68
2023/01/20 11:03:38;;;;;;;22.38;10.15;;;;;;;-144.47;71.80;53026.91;5015645;28;20111;-66
2023/01/20 11:06:05;;;;;;;23.02;11.35;;;;;;;-144.47;70.85;53038.81;5014936;28;20029;-66
2023/01/20 11:08:31;;;;;;;28.00;10.77;;;;;;;-144.47;71.00;53038.81;5017629;28;20045;-66
2023/01/20 11:11:00;;;;;;;31.42;10.95;;;;;;;-144.47;71.62;53068.63;5023585;28;20414;-67
2023/01/20 11:13:25;;;;;;;21.88;10.52;;;;;;;-144.47;71.51;53036.84;5015607;28;20022;-67
2023/01/20 11:15:56;;;;;;;30.50;11.50;;;;;;;-144.47;71.75;53046.75;5016185;28;20416;-67
2023/01/20 11:18:27;;;;;;;22.55;10.48;;;;;;;-144.47;71.70;53020.94;5013386;28;20127;-67
2023/01/20 11:20:56;;;;;;;25.13;12.45;;;;;;;-144.47;72.50;53040.81;5012214;28;20040;-69
2023/01/20 11:23:39;;;;;;;22.05;10.05;;;;;;;-144.47;71.46;53015.00;5016649;28;20037;-65
2023/01/20 11:26:24;;;;;;;23.13;9.00;;;;;;;-144.47;71.75;53052.72;5028934;28;20028;-67